Terminal Aerodrome Forecast
Issued by NWS Corpus Christi, TX

Home | Current Version | Previous Version | Text Only | Print | Product List | Glossary On
Versions: 1 2 3 4 5 6 7 8 9 10 11 12
762
FTUS44 KCRP 110520
TAFVCT
TAF
KVCT 110520Z 1106/1206 18008KT P6SM SKC
     FM111600 19015G25KT P6SM SKC
     FM120000 17008KT P6SM SKC=

USA.gov is the U.S. government's official web portal to all federal, state and local government web resources and services.